Henderson Harbor, New York
Current Conditions -  °F | °C
As of 11:56 AM on Saturday 22 Nov 2014 (Local Time) from KART Reporting Station
Overcast Overcast  
Wind Chill: 29°   Ceiling: 5000
Heat Index: 37°   Visibility: 10mi
Dew Point:   Wind: 13mph
Humidity: 29%   Direction: 200°SSW
Pressure: 30.07"   Gusts: 21mph
Location:  43.86°N, 76.2°W
Report Text: KART 221656Z AUTO 20011G18KT 10SM FEW042 OVC050 03/M14 A3007 RMK AO2 PK WND 19027/1629 SLP188 T00281139
Loading
Personal Weather Stations






























Interactive Weather Map New forecast layout! Learn more

10-Day Weather Forecast

Advertisements
Track Severe Weather on mobile